sensor_id;sensor_type;location;lat;lon;timestamp;P1;durP1;ratioP1;P2;durP2;ratioP2
47804;SDS011;33568;45.286;9.900;2023-06-26T00:02:12;10.23;;;7.43;;
47804;SDS011;33568;45.286;9.900;2023-06-26T00:04:38;12.48;;;7.00;;
47804;SDS011;33568;45.286;9.900;2023-06-26T00:07:05;9.00;;;7.68;;
47804;SDS011;33568;45.286;9.900;2023-06-26T00:09:32;11.80;;;7.47;;
47804;SDS011;33568;45.286;9.900;2023-06-26T00:11:58;10.73;;;7.50;;
47804;SDS011;33568;45.286;9.900;2023-06-26T00:14:25;7.70;;;5.45;;
47804;SDS011;33568;45.286;9.900;2023-06-26T00:16:52;11.30;;;7.35;;
47804;SDS011;33568;45.286;9.900;2023-06-26T00:19:19;13.13;;;8.23;;
47804;SDS011;33568;45.286;9.900;2023-06-26T00:21:45;9.65;;;5.28;;
47804;SDS011;33568;45.286;9.900;2023-06-26T00:24:14;11.30;;;6.93;;
47804;SDS011;33568;45.286;9.900;2023-06-26T00:26:41;7.47;;;5.95;;
47804;SDS011;33568;45.286;9.900;2023-06-26T00:29:08;14.63;;;9.98;;
47804;SDS011;33568;45.286;9.900;2023-06-26T00:31:34;12.57;;;8.18;;
47804;SDS011;33568;45.286;9.900;2023-06-26T00:34:01;16.92;;;10.60;;
47804;SDS011;33568;45.286;9.900;2023-06-26T00:36:28;13.98;;;8.73;;
47804;SDS011;33568;45.286;9.900;2023-06-26T00:38:54;13.82;;;9.63;;
47804;SDS011;33568;45.286;9.900;2023-06-26T00:41:21;9.35;;;8.35;;
47804;SDS011;33568;45.286;9.900;2023-06-26T00:43:47;11.73;;;6.25;;
47804;SDS011;33568;45.286;9.900;2023-06-26T00:46:14;13.07;;;9.13;;
47804;SDS011;33568;45.286;9.900;2023-06-26T00:48:41;22.00;;;9.77;;
47804;SDS011;33568;45.286;9.900;2023-06-26T00:51:09;13.27;;;10.20;;
47804;SDS011;33568;45.286;9.900;2023-06-26T00:53:37;13.50;;;10.45;;
47804;SDS011;33568;45.286;9.900;2023-06-26T00:56:05;10.93;;;8.35;;
47804;SDS011;33568;45.286;9.900;2023-06-26T00:58:32;9.77;;;7.95;;
47804;SDS011;33568;45.286;9.900;2023-06-26T01:00:59;12.02;;;7.10;;
47804;SDS011;33568;45.286;9.900;2023-06-26T01:03:27;11.30;;;7.20;;
47804;SDS011;33568;45.286;9.900;2023-06-26T01:05:56;18.75;;;9.98;;
47804;SDS011;33568;45.286;9.900;2023-06-26T01:08:23;8.30;;;6.30;;
47804;SDS011;33568;45.286;9.900;2023-06-26T01:10:51;13.10;;;7.68;;
47804;SDS011;33568;45.286;9.900;2023-06-26T01:13:18;11.13;;;8.43;;
47804;SDS011;33568;45.286;9.900;2023-06-26T01:15:46;7.10;;;5.40;;
47804;SDS011;33568;45.286;9.900;2023-06-26T01:18:13;12.95;;;7.07;;
47804;SDS011;33568;45.286;9.900;2023-06-26T01:20:41;12.55;;;5.45;;
47804;SDS011;33568;45.286;9.900;2023-06-26T01:25:44;12.32;;;9.23;;
47804;SDS011;33568;45.286;9.900;2023-06-26T01:28:37;11.00;;;5.55;;
47804;SDS011;33568;45.286;9.900;2023-06-26T01:31:07;15.05;;;8.18;;
47804;SDS011;33568;45.286;9.900;2023-06-26T01:33:34;9.02;;;6.43;;
47804;SDS011;33568;45.286;9.900;2023-06-26T01:36:01;10.27;;;7.95;;
47804;SDS011;33568;45.286;9.900;2023-06-26T01:38:28;10.95;;;7.90;;
47804;SDS011;33568;45.286;9.900;2023-06-26T01:40:56;14.63;;;9.35;;
47804;SDS011;33568;45.286;9.900;2023-06-26T01:43:27;7.35;;;6.40;;
47804;SDS011;33568;45.286;9.900;2023-06-26T01:46:09;8.07;;;5.57;;
47804;SDS011;33568;45.286;9.900;2023-06-26T01:48:59;10.07;;;9.05;;
47804;SDS011;33568;45.286;9.900;2023-06-26T01:51:42;7.32;;;6.63;;
47804;SDS011;33568;45.286;9.900;2023-06-26T01:54:17;10.10;;;9.10;;
47804;SDS011;33568;45.286;9.900;2023-06-26T01:56:48;14.10;;;8.70;;
47804;SDS011;33568;45.286;9.900;2023-06-26T01:59:18;7.30;;;6.15;;
47804;SDS011;33568;45.286;9.900;2023-06-26T02:01:46;7.85;;;5.20;;
47804;SDS011;33568;45.286;9.900;2023-06-26T02:04:13;9.40;;;6.70;;
47804;SDS011;33568;45.286;9.900;2023-06-26T02:06:40;12.43;;;7.07;;
47804;SDS011;33568;45.286;9.900;2023-06-26T02:09:06;7.38;;;6.57;;
47804;SDS011;33568;45.286;9.900;2023-06-26T02:11:33;8.73;;;7.85;;
47804;SDS011;33568;45.286;9.900;2023-06-26T02:14:00;10.50;;;6.65;;
47804;SDS011;33568;45.286;9.900;2023-06-26T02:16:27;12.98;;;8.45;;
47804;SDS011;33568;45.286;9.900;2023-06-26T02:18:53;7.63;;;5.18;;
47804;SDS011;33568;45.286;9.900;2023-06-26T02:21:22;10.02;;;7.68;;
47804;SDS011;33568;45.286;9.900;2023-06-26T02:23:49;10.15;;;5.93;;
47804;SDS011;33568;45.286;9.900;2023-06-26T02:26:15;7.05;;;4.75;;
47804;SDS011;33568;45.286;9.900;2023-06-26T02:28:42;8.80;;;6.32;;
47804;SDS011;33568;45.286;9.900;2023-06-26T02:31:11;9.02;;;8.13;;
47804;SDS011;33568;45.286;9.900;2023-06-26T02:33:38;5.95;;;5.35;;
47804;SDS011;33568;45.286;9.900;2023-06-26T02:36:05;6.57;;;5.90;;
47804;SDS011;33568;45.286;9.900;2023-06-26T02:38:32;7.53;;;6.63;;
47804;SDS011;33568;45.286;9.900;2023-06-26T02:40:58;7.90;;;6.93;;
47804;SDS011;33568;45.286;9.900;2023-06-26T02:43:26;9.93;;;8.63;;
47804;SDS011;33568;45.286;9.900;2023-06-26T02:45:52;6.47;;;5.15;;
47804;SDS011;33568;45.286;9.900;2023-06-26T02:48:19;9.30;;;7.95;;
47804;SDS011;33568;45.286;9.900;2023-06-26T02:50:45;10.52;;;8.40;;
47804;SDS011;33568;45.286;9.900;2023-06-26T02:53:14;10.13;;;6.75;;
47804;SDS011;33568;45.286;9.900;2023-06-26T02:55:44;5.72;;;4.78;;
47804;SDS011;33568;45.286;9.900;2023-06-26T02:58:14;9.95;;;8.63;;
47804;SDS011;33568;45.286;9.900;2023-06-26T03:00:40;6.78;;;5.20;;
47804;SDS011;33568;45.286;9.900;2023-06-26T03:03:10;7.85;;;5.32;;
47804;SDS011;33568;45.286;9.900;2023-06-26T03:05:36;11.00;;;6.70;;
47804;SDS011;33568;45.286;9.900;2023-06-26T03:08:03;9.32;;;7.93;;
47804;SDS011;33568;45.286;9.900;2023-06-26T03:10:30;6.32;;;5.72;;
47804;SDS011;33568;45.286;9.900;2023-06-26T03:12:57;7.88;;;6.82;;
47804;SDS011;33568;45.286;9.900;2023-06-26T03:15:24;10.38;;;6.05;;
47804;SDS011;33568;45.286;9.900;2023-06-26T03:17:51;8.82;;;6.70;;
47804;SDS011;33568;45.286;9.900;2023-06-26T03:20:23;10.10;;;9.10;;
47804;SDS011;33568;45.286;9.900;2023-06-26T03:22:55;14.82;;;9.15;;
47804;SDS011;33568;45.286;9.900;2023-06-26T03:25:22;6.05;;;5.43;;
47804;SDS011;33568;45.286;9.900;2023-06-26T03:27:56;10.18;;;6.05;;
47804;SDS011;33568;45.286;9.900;2023-06-26T03:30:24;9.05;;;7.00;;
47804;SDS011;33568;45.286;9.900;2023-06-26T03:32:52;7.88;;;5.55;;
47804;SDS011;33568;45.286;9.900;2023-06-26T03:35:19;7.20;;;5.78;;
47804;SDS011;33568;45.286;9.900;2023-06-26T03:37:47;10.15;;;8.32;;
47804;SDS011;33568;45.286;9.900;2023-06-26T03:40:15;15.55;;;8.32;;
47804;SDS011;33568;45.286;9.900;2023-06-26T03:42:42;9.40;;;7.93;;
47804;SDS011;33568;45.286;9.900;2023-06-26T03:45:10;14.80;;;8.40;;
47804;SDS011;33568;45.286;9.900;2023-06-26T03:47:37;12.80;;;9.55;;
47804;SDS011;33568;45.286;9.900;2023-06-26T03:50:04;11.15;;;8.30;;
47804;SDS011;33568;45.286;9.900;2023-06-26T03:52:31;14.35;;;8.50;;
47804;SDS011;33568;45.286;9.900;2023-06-26T03:54:57;12.95;;;8.63;;
47804;SDS011;33568;45.286;9.900;2023-06-26T03:57:24;12.18;;;9.85;;
47804;SDS011;33568;45.286;9.900;2023-06-26T03:59:52;16.45;;;8.88;;
47804;SDS011;33568;45.286;9.900;2023-06-26T04:02:21;11.35;;;9.20;;
47804;SDS011;33568;45.286;9.900;2023-06-26T04:04:48;9.73;;;7.97;;
47804;SDS011;33568;45.286;9.900;2023-06-26T04:07:15;12.38;;;8.63;;
47804;SDS011;33568;45.286;9.900;2023-06-26T04:09:42;9.85;;;8.50;;
47804;SDS011;33568;45.286;9.900;2023-06-26T04:12:08;11.27;;;8.13;;
47804;SDS011;33568;45.286;9.900;2023-06-26T04:14:35;10.07;;;7.93;;
47804;SDS011;33568;45.286;9.900;2023-06-26T04:17:02;9.10;;;7.72;;
47804;SDS011;33568;45.286;9.900;2023-06-26T04:19:29;11.50;;;8.18;;
47804;SDS011;33568;45.286;9.900;2023-06-26T04:21:56;15.32;;;9.75;;
47804;SDS011;33568;45.286;9.900;2023-06-26T04:24:23;17.20;;;8.30;;
47804;SDS011;33568;45.286;9.900;2023-06-26T04:26:49;11.82;;;9.07;;
47804;SDS011;33568;45.286;9.900;2023-06-26T04:29:16;11.32;;;8.68;;
47804;SDS011;33568;45.286;9.900;2023-06-26T04:31:42;8.80;;;7.88;;
47804;SDS011;33568;45.286;9.900;2023-06-26T04:34:13;10.73;;;9.55;;
47804;SDS011;33568;45.286;9.900;2023-06-26T04:36:39;10.27;;;9.18;;
47804;SDS011;33568;45.286;9.900;2023-06-26T04:39:06;11.48;;;9.35;;
47804;SDS011;33568;45.286;9.900;2023-06-26T04:41:33;10.65;;;8.40;;
47804;SDS011;33568;45.286;9.900;2023-06-26T04:43:59;10.07;;;8.27;;
47804;SDS011;33568;45.286;9.900;2023-06-26T04:46:25;12.85;;;9.35;;
47804;SDS011;33568;45.286;9.900;2023-06-26T04:48:53;16.60;;;9.63;;
47804;SDS011;33568;45.286;9.900;2023-06-26T04:51:20;14.05;;;8.63;;
47804;SDS011;33568;45.286;9.900;2023-06-26T04:53:46;11.35;;;9.02;;
47804;SDS011;33568;45.286;9.900;2023-06-26T04:56:13;13.63;;;8.43;;
47804;SDS011;33568;45.286;9.900;2023-06-26T04:58:39;11.63;;;8.73;;
47804;SDS011;33568;45.286;9.900;2023-06-26T05:01:06;8.65;;;7.45;;
47804;SDS011;33568;45.286;9.900;2023-06-26T05:03:32;12.95;;;7.50;;
47804;SDS011;33568;45.286;9.900;2023-06-26T05:06:00;11.48;;;7.80;;
47804;SDS011;33568;45.286;9.900;2023-06-26T05:08:26;9.45;;;7.53;;
47804;SDS011;33568;45.286;9.900;2023-06-26T05:10:53;9.45;;;6.32;;
47804;SDS011;33568;45.286;9.900;2023-06-26T05:13:26;11.05;;;8.27;;
47804;SDS011;33568;45.286;9.900;2023-06-26T05:15:53;10.23;;;7.10;;
47804;SDS011;33568;45.286;9.900;2023-06-26T05:18:19;17.52;;;7.97;;
47804;SDS011;33568;45.286;9.900;2023-06-26T05:20:46;10.13;;;6.20;;
47804;SDS011;33568;45.286;9.900;2023-06-26T05:23:13;13.73;;;8.73;;
47804;SDS011;33568;45.286;9.900;2023-06-26T05:25:42;10.05;;;7.53;;
47804;SDS011;33568;45.286;9.900;2023-06-26T05:28:08;11.05;;;5.85;;
47804;SDS011;33568;45.286;9.900;2023-06-26T05:30:38;8.90;;;8.10;;
47804;SDS011;33568;45.286;9.900;2023-06-26T05:33:05;9.65;;;7.05;;
47804;SDS011;33568;45.286;9.900;2023-06-26T05:35:32;9.70;;;7.03;;
47804;SDS011;33568;45.286;9.900;2023-06-26T05:38:00;5.88;;;5.13;;
47804;SDS011;33568;45.286;9.900;2023-06-26T05:40:27;11.82;;;8.18;;
47804;SDS011;33568;45.286;9.900;2023-06-26T05:42:54;9.07;;;7.13;;
47804;SDS011;33568;45.286;9.900;2023-06-26T05:45:20;7.70;;;6.85;;
47804;SDS011;33568;45.286;9.900;2023-06-26T05:47:47;7.68;;;5.63;;
47804;SDS011;33568;45.286;9.900;2023-06-26T05:50:17;7.30;;;5.47;;
47804;SDS011;33568;45.286;9.900;2023-06-26T05:52:45;11.65;;;8.43;;
47804;SDS011;33568;45.286;9.900;2023-06-26T05:55:12;12.73;;;7.85;;
47804;SDS011;33568;45.286;9.900;2023-06-26T05:57:39;9.20;;;6.70;;
47804;SDS011;33568;45.286;9.900;2023-06-26T06:00:07;12.52;;;8.88;;
47804;SDS011;33568;45.286;9.900;2023-06-26T06:02:39;9.95;;;6.32;;
47804;SDS011;33568;45.286;9.900;2023-06-26T06:05:07;8.68;;;6.00;;
47804;SDS011;33568;45.286;9.900;2023-06-26T06:07:34;11.75;;;8.60;;
47804;SDS011;33568;45.286;9.900;2023-06-26T06:10:02;13.75;;;7.15;;
47804;SDS011;33568;45.286;9.900;2023-06-26T06:12:29;17.60;;;8.57;;
47804;SDS011;33568;45.286;9.900;2023-06-26T06:14:56;17.15;;;9.57;;
47804;SDS011;33568;45.286;9.900;2023-06-26T06:17:23;12.90;;;7.50;;
47804;SDS011;33568;45.286;9.900;2023-06-26T06:19:49;5.97;;;4.93;;
47804;SDS011;33568;45.286;9.900;2023-06-26T06:22:16;9.20;;;6.57;;
47804;SDS011;33568;45.286;9.900;2023-06-26T06:24:43;16.90;;;10.55;;
47804;SDS011;33568;45.286;9.900;2023-06-26T06:27:10;17.70;;;9.43;;
47804;SDS011;33568;45.286;9.900;2023-06-26T06:29:36;19.85;;;10.48;;
47804;SDS011;33568;45.286;9.900;2023-06-26T06:32:03;17.00;;;9.48;;
47804;SDS011;33568;45.286;9.900;2023-06-26T06:34:29;13.93;;;9.60;;
47804;SDS011;33568;45.286;9.900;2023-06-26T06:36:56;11.30;;;8.50;;
47804;SDS011;33568;45.286;9.900;2023-06-26T06:39:22;6.72;;;5.07;;
47804;SDS011;33568;45.286;9.900;2023-06-26T06:41:49;16.65;;;9.80;;
47804;SDS011;33568;45.286;9.900;2023-06-26T06:44:16;13.75;;;9.45;;
47804;SDS011;33568;45.286;9.900;2023-06-26T06:46:43;15.93;;;10.07;;
47804;SDS011;33568;45.286;9.900;2023-06-26T06:49:09;9.38;;;7.57;;
47804;SDS011;33568;45.286;9.900;2023-06-26T06:51:36;10.25;;;7.30;;
47804;SDS011;33568;45.286;9.900;2023-06-26T06:54:02;12.27;;;6.70;;
47804;SDS011;33568;45.286;9.900;2023-06-26T06:56:29;18.75;;;9.75;;
47804;SDS011;33568;45.286;9.900;2023-06-26T06:58:55;9.02;;;5.78;;
47804;SDS011;33568;45.286;9.900;2023-06-26T07:01:22;36.42;;;10.07;;
47804;SDS011;33568;45.286;9.900;2023-06-26T07:03:48;15.50;;;10.05;;
47804;SDS011;33568;45.286;9.900;2023-06-26T07:06:15;6.55;;;5.70;;
47804;SDS011;33568;45.286;9.900;2023-06-26T07:08:41;14.82;;;10.40;;
47804;SDS011;33568;45.286;9.900;2023-06-26T07:11:08;13.02;;;6.72;;
47804;SDS011;33568;45.286;9.900;2023-06-26T07:13:34;11.48;;;5.90;;
47804;SDS011;33568;45.286;9.900;2023-06-26T07:16:01;10.10;;;7.45;;
47804;SDS011;33568;45.286;9.900;2023-06-26T07:18:27;12.65;;;9.80;;
47804;SDS011;33568;45.286;9.900;2023-06-26T07:20:54;10.45;;;9.35;;
47804;SDS011;33568;45.286;9.900;2023-06-26T07:23:20;14.43;;;10.10;;
47804;SDS011;33568;45.286;9.900;2023-06-26T07:25:47;17.33;;;10.20;;
47804;SDS011;33568;45.286;9.900;2023-06-26T07:28:13;12.30;;;8.20;;
47804;SDS011;33568;45.286;9.900;2023-06-26T07:30:40;11.48;;;9.25;;
47804;SDS011;33568;45.286;9.900;2023-06-26T07:33:06;12.38;;;9.95;;
47804;SDS011;33568;45.286;9.900;2023-06-26T07:35:33;15.05;;;9.68;;
47804;SDS011;33568;45.286;9.900;2023-06-26T07:37:59;15.73;;;9.50;;
47804;SDS011;33568;45.286;9.900;2023-06-26T07:40:26;11.32;;;7.93;;
47804;SDS011;33568;45.286;9.900;2023-06-26T07:42:53;14.13;;;7.93;;
47804;SDS011;33568;45.286;9.900;2023-06-26T07:45:19;6.50;;;4.70;;
47804;SDS011;33568;45.286;9.900;2023-06-26T07:47:46;14.88;;;8.70;;
47804;SDS011;33568;45.286;9.900;2023-06-26T07:50:13;11.80;;;8.63;;
47804;SDS011;33568;45.286;9.900;2023-06-26T07:52:45;16.70;;;8.10;;
47804;SDS011;33568;45.286;9.900;2023-06-26T07:55:11;10.38;;;8.32;;
47804;SDS011;33568;45.286;9.900;2023-06-26T07:57:38;13.73;;;8.32;;
47804;SDS011;33568;45.286;9.900;2023-06-26T08:00:04;12.35;;;9.23;;
47804;SDS011;33568;45.286;9.900;2023-06-26T08:02:40;19.37;;;8.80;;
47804;SDS011;33568;45.286;9.900;2023-06-26T08:05:06;15.73;;;8.45;;
47804;SDS011;33568;45.286;9.900;2023-06-26T08:07:33;13.48;;;10.27;;
47804;SDS011;33568;45.286;9.900;2023-06-26T08:09:59;19.13;;;10.57;;
47804;SDS011;33568;45.286;9.900;2023-06-26T08:12:26;20.50;;;9.85;;
47804;SDS011;33568;45.286;9.900;2023-06-26T08:14:52;15.82;;;10.13;;
47804;SDS011;33568;45.286;9.900;2023-06-26T08:17:19;15.95;;;10.32;;
47804;SDS011;33568;45.286;9.900;2023-06-26T08:19:45;18.15;;;8.88;;
47804;SDS011;33568;45.286;9.900;2023-06-26T08:22:12;13.27;;;9.20;;
47804;SDS011;33568;45.286;9.900;2023-06-26T08:24:38;18.30;;;10.57;;
47804;SDS011;33568;45.286;9.900;2023-06-26T08:27:05;14.18;;;10.05;;
47804;SDS011;33568;45.286;9.900;2023-06-26T08:29:33;9.32;;;8.25;;
47804;SDS011;33568;45.286;9.900;2023-06-26T08:32:00;17.17;;;9.30;;
47804;SDS011;33568;45.286;9.900;2023-06-26T08:34:28;13.75;;;7.25;;
47804;SDS011;33568;45.286;9.900;2023-06-26T08:36:54;12.18;;;8.23;;
47804;SDS011;33568;45.286;9.900;2023-06-26T08:39:21;18.10;;;8.45;;
47804;SDS011;33568;45.286;9.900;2023-06-26T08:41:47;16.52;;;8.40;;
47804;SDS011;33568;45.286;9.900;2023-06-26T08:44:13;11.18;;;8.07;;
47804;SDS011;33568;45.286;9.900;2023-06-26T08:46:40;13.48;;;7.53;;
47804;SDS011;33568;45.286;9.900;2023-06-26T08:52:02;14.52;;;8.25;;
47804;SDS011;33568;45.286;9.900;2023-06-26T08:54:38;13.05;;;7.10;;
47804;SDS011;33568;45.286;9.900;2023-06-26T08:57:10;16.08;;;6.70;;
47804;SDS011;33568;45.286;9.900;2023-06-26T08:59:38;6.43;;;4.32;;
47804;SDS011;33568;45.286;9.900;2023-06-26T09:02:05;13.05;;;7.30;;
47804;SDS011;33568;45.286;9.900;2023-06-26T09:04:32;9.52;;;7.00;;
47804;SDS011;33568;45.286;9.900;2023-06-26T09:07:00;11.45;;;6.68;;
47804;SDS011;33568;45.286;9.900;2023-06-26T09:09:27;13.50;;;5.93;;
47804;SDS011;33568;45.286;9.900;2023-06-26T09:11:54;9.65;;;7.90;;
47804;SDS011;33568;45.286;9.900;2023-06-26T09:14:21;12.57;;;6.68;;
47804;SDS011;33568;45.286;9.900;2023-06-26T09:16:48;7.53;;;4.72;;
47804;SDS011;33568;45.286;9.900;2023-06-26T09:19:15;9.93;;;6.20;;
47804;SDS011;33568;45.286;9.900;2023-06-26T09:21:42;14.18;;;6.45;;
47804;SDS011;33568;45.286;9.900;2023-06-26T09:24:09;7.22;;;6.43;;
47804;SDS011;33568;45.286;9.900;2023-06-26T09:26:37;6.97;;;4.95;;
47804;SDS011;33568;45.286;9.900;2023-06-26T09:29:05;11.38;;;7.20;;
47804;SDS011;33568;45.286;9.900;2023-06-26T09:31:32;8.98;;;6.38;;
47804;SDS011;33568;45.286;9.900;2023-06-26T09:34:00;6.75;;;5.30;;
47804;SDS011;33568;45.286;9.900;2023-06-26T09:36:30;4.22;;;3.83;;
47804;SDS011;33568;45.286;9.900;2023-06-26T09:39:02;12.88;;;7.05;;
47804;SDS011;33568;45.286;9.900;2023-06-26T09:41:30;10.95;;;5.20;;
47804;SDS011;33568;45.286;9.900;2023-06-26T09:43:58;6.80;;;6.10;;
47804;SDS011;33568;45.286;9.900;2023-06-26T09:46:28;7.50;;;5.60;;
47804;SDS011;33568;45.286;9.900;2023-06-26T09:49:06;11.32;;;5.32;;
47804;SDS011;33568;45.286;9.900;2023-06-26T09:51:34;8.10;;;5.40;;
47804;SDS011;33568;45.286;9.900;2023-06-26T09:54:02;5.70;;;5.03;;
47804;SDS011;33568;45.286;9.900;2023-06-26T09:56:29;6.63;;;4.97;;
47804;SDS011;33568;45.286;9.900;2023-06-26T09:58:56;13.25;;;6.22;;
47804;SDS011;33568;45.286;9.900;2023-06-26T10:01:25;6.05;;;4.40;;
47804;SDS011;33568;45.286;9.900;2023-06-26T10:03:52;8.05;;;4.55;;
47804;SDS011;33568;45.286;9.900;2023-06-26T10:06:24;9.75;;;5.28;;
47804;SDS011;33568;45.286;9.900;2023-06-26T10:08:58;8.57;;;5.60;;
47804;SDS011;33568;45.286;9.900;2023-06-26T10:11:28;8.18;;;6.30;;
47804;SDS011;33568;45.286;9.900;2023-06-26T10:14:18;10.30;;;6.07;;
47804;SDS011;33568;45.286;9.900;2023-06-26T10:16:46;7.30;;;5.53;;
47804;SDS011;33568;45.286;9.900;2023-06-26T10:19:15;7.75;;;5.45;;
47804;SDS011;33568;45.286;9.900;2023-06-26T10:21:47;8.32;;;4.18;;
47804;SDS011;33568;45.286;9.900;2023-06-26T10:24:13;10.75;;;5.45;;
47804;SDS011;33568;45.286;9.900;2023-06-26T10:26:42;12.75;;;5.65;;
47804;SDS011;33568;45.286;9.900;2023-06-26T10:29:12;7.55;;;4.10;;
47804;SDS011;33568;45.286;9.900;2023-06-26T10:31:42;7.95;;;4.40;;
47804;SDS011;33568;45.286;9.900;2023-06-26T10:34:16;6.60;;;4.55;;
47804;SDS011;33568;45.286;9.900;2023-06-26T10:36:44;10.20;;;5.22;;
47804;SDS011;33568;45.286;9.900;2023-06-26T10:39:10;8.18;;;3.40;;
47804;SDS011;33568;45.286;9.900;2023-06-26T10:41:38;6.88;;;4.15;;
47804;SDS011;33568;45.286;9.900;2023-06-26T10:44:08;6.80;;;3.50;;
47804;SDS011;33568;45.286;9.900;2023-06-26T10:46:55;5.95;;;3.58;;
47804;SDS011;33568;45.286;9.900;2023-06-26T10:49:24;3.78;;;3.38;;
47804;SDS011;33568;45.286;9.900;2023-06-26T10:51:52;8.75;;;4.05;;
47804;SDS011;33568;45.286;9.900;2023-06-26T10:54:20;3.97;;;3.45;;
47804;SDS011;33568;45.286;9.900;2023-06-26T10:56:47;4.97;;;3.70;;
47804;SDS011;33568;45.286;9.900;2023-06-26T10:59:24;6.05;;;3.83;;
47804;SDS011;33568;45.286;9.900;2023-06-26T11:02:02;3.97;;;3.30;;
47804;SDS011;33568;45.286;9.900;2023-06-26T11:04:40;6.05;;;3.38;;
47804;SDS011;33568;45.286;9.900;2023-06-26T11:07:22;5.25;;;3.70;;
47804;SDS011;33568;45.286;9.900;2023-06-26T11:12:43;3.85;;;3.10;;
47804;SDS011;33568;45.286;9.900;2023-06-26T11:15:11;10.20;;;3.50;;
47804;SDS011;33568;45.286;9.900;2023-06-26T11:17:39;3.40;;;3.08;;
47804;SDS011;33568;45.286;9.900;2023-06-26T11:20:07;5.75;;;3.08;;
47804;SDS011;33568;45.286;9.900;2023-06-26T11:22:38;5.15;;;3.15;;
47804;SDS011;33568;45.286;9.900;2023-06-26T11:25:09;5.72;;;3.47;;
47804;SDS011;33568;45.286;9.900;2023-06-26T11:30:07;10.77;;;4.00;;
47804;SDS011;33568;45.286;9.900;2023-06-26T11:32:38;10.95;;;3.72;;
47804;SDS011;33568;45.286;9.900;2023-06-26T11:35:05;6.53;;;4.03;;
47804;SDS011;33568;45.286;9.900;2023-06-26T11:37:32;7.18;;;3.60;;
47804;SDS011;33568;45.286;9.900;2023-06-26T11:39:59;5.13;;;3.33;;
47804;SDS011;33568;45.286;9.900;2023-06-26T11:42:41;6.18;;;3.72;;
47804;SDS011;33568;45.286;9.900;2023-06-26T11:45:08;7.53;;;4.07;;
47804;SDS011;33568;45.286;9.900;2023-06-26T11:47:35;7.30;;;4.78;;
47804;SDS011;33568;45.286;9.900;2023-06-26T11:50:04;7.65;;;4.15;;
47804;SDS011;33568;45.286;9.900;2023-06-26T11:52:32;8.05;;;4.88;;
47804;SDS011;33568;45.286;9.900;2023-06-26T11:54:59;14.20;;;4.97;;
47804;SDS011;33568;45.286;9.900;2023-06-26T11:57:25;9.70;;;4.68;;
47804;SDS011;33568;45.286;9.900;2023-06-26T11:59:52;9.52;;;4.40;;
47804;SDS011;33568;45.286;9.900;2023-06-26T12:02:18;7.18;;;4.10;;
47804;SDS011;33568;45.286;9.900;2023-06-26T12:04:47;6.85;;;4.57;;
47804;SDS011;33568;45.286;9.900;2023-06-26T12:07:13;5.55;;;3.92;;
47804;SDS011;33568;45.286;9.900;2023-06-26T12:09:41;10.25;;;4.90;;
47804;SDS011;33568;45.286;9.900;2023-06-26T12:12:12;6.20;;;4.22;;
47804;SDS011;33568;45.286;9.900;2023-06-26T12:14:40;8.57;;;4.78;;
47804;SDS011;33568;45.286;9.900;2023-06-26T12:17:11;9.68;;;4.30;;
47804;SDS011;33568;45.286;9.900;2023-06-26T12:19:38;6.63;;;4.15;;
47804;SDS011;33568;45.286;9.900;2023-06-26T12:22:08;6.28;;;4.28;;
47804;SDS011;33568;45.286;9.900;2023-06-26T12:24:36;8.75;;;4.38;;
47804;SDS011;33568;45.286;9.900;2023-06-26T12:27:11;6.93;;;3.90;;
47804;SDS011;33568;45.286;9.900;2023-06-26T12:29:39;13.77;;;4.30;;
47804;SDS011;33568;45.286;9.900;2023-06-26T12:32:08;10.10;;;4.40;;
47804;SDS011;33568;45.286;9.900;2023-06-26T12:34:39;5.90;;;3.90;;
47804;SDS011;33568;45.286;9.900;2023-06-26T12:37:07;14.93;;;4.05;;
47804;SDS011;33568;45.286;9.900;2023-06-26T12:39:47;6.50;;;4.22;;
47804;SDS011;33568;45.286;9.900;2023-06-26T12:42:36;8.85;;;4.68;;
47804;SDS011;33568;45.286;9.900;2023-06-26T12:45:10;7.63;;;4.25;;
47804;SDS011;33568;45.286;9.900;2023-06-26T12:47:40;7.28;;;3.95;;
47804;SDS011;33568;45.286;9.900;2023-06-26T12:50:11;14.63;;;4.88;;
47804;SDS011;33568;45.286;9.900;2023-06-26T12:52:38;8.82;;;4.05;;
47804;SDS011;33568;45.286;9.900;2023-06-26T12:55:04;12.45;;;4.95;;
47804;SDS011;33568;45.286;9.900;2023-06-26T12:57:31;9.43;;;5.45;;
47804;SDS011;33568;45.286;9.900;2023-06-26T12:59:58;8.88;;;4.60;;
47804;SDS011;33568;45.286;9.900;2023-06-26T13:02:26;14.70;;;4.70;;
47804;SDS011;33568;45.286;9.900;2023-06-26T13:04:52;6.78;;;4.43;;
47804;SDS011;33568;45.286;9.900;2023-06-26T13:07:20;6.28;;;4.10;;
47804;SDS011;33568;45.286;9.900;2023-06-26T13:09:47;7.47;;;4.47;;
47804;SDS011;33568;45.286;9.900;2023-06-26T13:12:14;8.88;;;4.18;;
47804;SDS011;33568;45.286;9.900;2023-06-26T13:14:40;8.98;;;4.63;;
47804;SDS011;33568;45.286;9.900;2023-06-26T13:17:08;4.72;;;4.10;;
47804;SDS011;33568;45.286;9.900;2023-06-26T13:19:37;5.78;;;4.20;;
47804;SDS011;33568;45.286;9.900;2023-06-26T13:22:03;9.15;;;4.30;;
47804;SDS011;33568;45.286;9.900;2023-06-26T13:24:30;10.02;;;4.97;;
47804;SDS011;33568;45.286;9.900;2023-06-26T13:26:56;5.18;;;4.10;;
47804;SDS011;33568;45.286;9.900;2023-06-26T13:29:23;5.88;;;4.15;;
47804;SDS011;33568;45.286;9.900;2023-06-26T13:31:49;8.13;;;4.25;;
47804;SDS011;33568;45.286;9.900;2023-06-26T13:34:22;7.68;;;4.20;;
47804;SDS011;33568;45.286;9.900;2023-06-26T13:36:50;8.98;;;4.18;;
47804;SDS011;33568;45.286;9.900;2023-06-26T13:39:16;13.63;;;4.82;;
47804;SDS011;33568;45.286;9.900;2023-06-26T13:41:43;9.18;;;4.20;;
47804;SDS011;33568;45.286;9.900;2023-06-26T13:44:09;10.90;;;4.22;;
47804;SDS011;33568;45.286;9.900;2023-06-26T13:46:35;11.13;;;4.07;;
47804;SDS011;33568;45.286;9.900;2023-06-26T13:49:02;12.43;;;4.25;;
47804;SDS011;33568;45.286;9.900;2023-06-26T13:51:28;8.98;;;3.53;;
47804;SDS011;33568;45.286;9.900;2023-06-26T13:53:55;5.85;;;3.95;;
47804;SDS011;33568;45.286;9.900;2023-06-26T13:56:26;5.50;;;4.20;;
47804;SDS011;33568;45.286;9.900;2023-06-26T13:58:53;8.70;;;4.50;;
47804;SDS011;33568;45.286;9.900;2023-06-26T14:01:20;9.40;;;4.40;;
47804;SDS011;33568;45.286;9.900;2023-06-26T14:03:46;8.32;;;4.07;;
47804;SDS011;33568;45.286;9.900;2023-06-26T14:06:13;10.60;;;3.97;;
47804;SDS011;33568;45.286;9.900;2023-06-26T14:08:39;5.88;;;4.10;;
47804;SDS011;33568;45.286;9.900;2023-06-26T14:11:06;6.57;;;4.05;;
47804;SDS011;33568;45.286;9.900;2023-06-26T14:13:32;8.43;;;3.47;;
47804;SDS011;33568;45.286;9.900;2023-06-26T14:15:58;7.38;;;3.90;;
47804;SDS011;33568;45.286;9.900;2023-06-26T14:18:25;4.65;;;3.60;;
47804;SDS011;33568;45.286;9.900;2023-06-26T14:20:53;5.18;;;3.50;;
47804;SDS011;33568;45.286;9.900;2023-06-26T14:23:20;4.97;;;3.60;;
47804;SDS011;33568;45.286;9.900;2023-06-26T14:25:46;9.35;;;3.72;;
47804;SDS011;33568;45.286;9.900;2023-06-26T14:28:13;6.60;;;3.72;;
47804;SDS011;33568;45.286;9.900;2023-06-26T14:30:39;4.95;;;3.67;;
47804;SDS011;33568;45.286;9.900;2023-06-26T14:33:06;5.97;;;3.70;;
47804;SDS011;33568;45.286;9.900;2023-06-26T14:35:33;6.95;;;3.75;;
47804;SDS011;33568;45.286;9.900;2023-06-26T14:37:59;8.60;;;3.90;;
47804;SDS011;33568;45.286;9.900;2023-06-26T14:40:26;7.28;;;3.40;;
47804;SDS011;33568;45.286;9.900;2023-06-26T14:42:52;5.88;;;3.30;;
47804;SDS011;33568;45.286;9.900;2023-06-26T14:45:19;5.78;;;3.33;;
47804;SDS011;33568;45.286;9.900;2023-06-26T14:47:45;4.78;;;3.42;;
47804;SDS011;33568;45.286;9.900;2023-06-26T14:50:12;6.30;;;3.28;;
47804;SDS011;33568;45.286;9.900;2023-06-26T14:52:38;8.70;;;3.55;;
47804;SDS011;33568;45.286;9.900;2023-06-26T14:55:05;7.03;;;3.65;;
47804;SDS011;33568;45.286;9.900;2023-06-26T14:57:31;12.82;;;4.72;;